createdAt,value
2018-05-17T00:00:06.093Z,4.83
2018-05-17T00:02:33.538Z,4.13
2018-05-17T00:05:00.974Z,4.80
2018-05-17T00:07:29.199Z,4.93
2018-05-17T00:09:56.635Z,5.00
2018-05-17T00:12:24.081Z,5.40
2018-05-17T00:14:51.533Z,5.30
2018-05-17T00:17:18.981Z,4.67
2018-05-17T00:19:47.201Z,4.70
2018-05-17T00:22:14.633Z,4.77
2018-05-17T00:24:42.079Z,4.33
2018-05-17T00:27:09.529Z,4.70
2018-05-17T00:29:37.032Z,5.80
2018-05-17T00:32:04.475Z,5.23
2018-05-17T00:34:31.922Z,4.63
2018-05-17T00:36:59.380Z,5.10
2018-05-17T00:39:26.844Z,5.07
2018-05-17T00:41:54.290Z,5.10
2018-05-17T00:44:21.743Z,4.83
2018-05-17T00:46:49.189Z,6.03
2018-05-17T00:49:16.648Z,4.80
2018-05-17T00:51:44.083Z,4.47
2018-05-17T00:54:12.315Z,5.20
2018-05-17T00:56:39.750Z,6.17
2018-05-17T00:59:07.206Z,5.50
2018-05-17T01:01:34.665Z,5.17
2018-05-17T01:04:02.121Z,5.43
2018-05-17T01:06:29.564Z,4.47
2018-05-17T01:08:57.007Z,5.20
2018-05-17T01:11:24.481Z,4.37
2018-05-17T01:13:51.928Z,4.67
2018-05-17T01:16:19.380Z,4.77
2018-05-17T01:18:46.824Z,4.93
2018-05-17T01:21:15.035Z,4.37
2018-05-17T01:23:42.475Z,4.93
2018-05-17T01:26:09.918Z,5.30
2018-05-17T01:28:37.372Z,6.80
2018-05-17T01:31:06.430Z,4.10
2018-05-17T01:33:33.878Z,4.70
2018-05-17T01:36:01.331Z,5.73
2018-05-17T01:38:28.791Z,6.10
2018-05-17T01:40:56.246Z,5.30
2018-05-17T01:43:23.703Z,5.20
2018-05-17T01:45:51.157Z,4.70
2018-05-17T01:48:18.617Z,5.27
2018-05-17T01:50:46.078Z,4.93
2018-05-17T01:53:13.527Z,5.30
2018-05-17T01:55:40.979Z,5.33
2018-05-17T01:58:08.427Z,5.77
2018-05-17T02:00:35.867Z,5.03
2018-05-17T02:03:03.324Z,5.07
2018-05-17T02:05:30.763Z,4.90
2018-05-17T02:07:58.207Z,5.13
2018-05-17T02:10:26.436Z,4.70
2018-05-17T02:12:53.882Z,5.47
2018-05-17T02:15:21.344Z,5.00
2018-05-17T02:17:48.790Z,6.03
2018-05-17T02:20:16.245Z,5.23
2018-05-17T02:22:43.690Z,5.70
2018-05-17T02:25:11.138Z,6.47
2018-05-17T02:27:38.596Z,5.57
2018-05-17T02:30:06.811Z,5.50
2018-05-17T02:32:34.273Z,5.53
2018-05-17T02:35:01.726Z,6.20
2018-05-17T02:37:29.182Z,5.47
2018-05-17T02:39:56.640Z,6.50
2018-05-17T02:42:24.078Z,6.23
2018-05-17T02:44:51.529Z,5.83
2018-05-17T02:47:18.974Z,5.93
2018-05-17T02:49:46.425Z,5.37
2018-05-17T02:52:13.889Z,5.93
2018-05-17T02:54:41.335Z,6.27
2018-05-17T02:57:08.774Z,6.33
2018-05-17T02:59:36.996Z,5.63
2018-05-17T03:02:04.434Z,5.77
2018-05-17T03:04:31.880Z,5.73
2018-05-17T03:06:59.324Z,6.00
2018-05-17T03:09:27.549Z,5.83
2018-05-17T03:11:54.986Z,5.20
2018-05-17T03:14:22.458Z,5.50
2018-05-17T03:16:49.904Z,5.87
2018-05-17T03:19:17.355Z,6.20
2018-05-17T03:21:44.803Z,4.73
2018-05-17T03:24:12.261Z,5.40
2018-05-17T03:26:39.711Z,5.80
2018-05-17T03:29:07.180Z,5.57
2018-05-17T03:31:34.630Z,4.57
2018-05-17T03:34:02.080Z,4.63
2018-05-17T03:36:29.522Z,5.07
2018-05-17T03:38:57.725Z,5.00
2018-05-17T03:41:25.177Z,4.80
2018-05-17T03:43:52.619Z,5.60
2018-05-17T03:46:20.073Z,5.60
2018-05-17T03:48:48.274Z,4.97
2018-05-17T03:51:15.728Z,4.23
2018-05-17T03:53:43.184Z,5.07
2018-05-17T03:56:10.640Z,5.03
2018-05-17T03:58:38.084Z,3.70
2018-05-17T04:01:17.334Z,3.27
2018-05-17T04:03:56.755Z,3.67
2018-05-17T04:06:35.978Z,4.13
2018-05-17T04:09:04.213Z,4.77
2018-05-17T04:11:32.063Z,3.47
2018-05-17T04:13:59.588Z,3.77
2018-05-17T04:16:27.722Z,4.33
2018-05-17T04:18:55.169Z,4.80
2018-05-17T04:21:22.638Z,4.37
2018-05-17T04:23:50.076Z,4.40
2018-05-17T04:26:17.522Z,5.23
2018-05-17T04:28:44.965Z,4.20
2018-05-17T04:31:12.415Z,4.27
2018-05-17T04:33:39.883Z,4.37
2018-05-17T04:36:07.344Z,4.93
2018-05-17T04:38:34.778Z,4.10
2018-05-17T04:41:02.254Z,4.23
2018-05-17T04:43:29.701Z,4.60
2018-05-17T04:45:57.146Z,6.40
2018-05-17T04:48:24.581Z,5.47
2018-05-17T04:50:52.028Z,5.10
2018-05-17T04:53:20.242Z,6.10
2018-05-17T04:55:47.681Z,7.87
2018-05-17T04:58:15.132Z,4.93
2018-05-17T05:00:43.357Z,5.43
2018-05-17T05:03:10.802Z,4.60
2018-05-17T05:05:38.251Z,5.00
2018-05-17T05:08:05.707Z,4.63
2018-05-17T05:10:33.153Z,3.80
2018-05-17T05:13:00.603Z,4.20
2018-05-17T05:15:28.054Z,3.40
2018-05-17T05:17:55.498Z,2.77
2018-05-17T05:20:23.721Z,2.70
2018-05-17T05:22:51.168Z,2.80
2018-05-17T05:25:18.672Z,3.20
2018-05-17T05:27:46.061Z,2.83
2018-05-17T05:30:13.505Z,2.93
2018-05-17T05:32:40.945Z,2.97
2018-05-17T05:35:09.164Z,3.60
2018-05-17T05:37:36.696Z,3.00
2018-05-17T05:40:04.063Z,3.57
2018-05-17T05:42:31.512Z,3.43
2018-05-17T05:44:58.959Z,2.80
2018-05-17T05:47:26.390Z,3.37
2018-05-17T05:49:53.844Z,2.90
2018-05-17T05:52:21.307Z,3.03
2018-05-17T05:54:48.760Z,3.07
2018-05-17T05:57:16.222Z,3.57
2018-05-17T05:59:44.438Z,2.50
2018-05-17T06:02:11.896Z,3.30
2018-05-17T06:04:39.343Z,3.50
2018-05-17T06:07:06.781Z,2.77
2018-05-17T06:09:34.284Z,3.17
2018-05-17T06:12:01.738Z,2.43
2018-05-17T06:14:29.189Z,2.80
2018-05-17T06:16:56.645Z,2.30
2018-05-17T06:19:24.096Z,2.90
2018-05-17T06:21:51.540Z,2.10
2018-05-17T06:24:18.978Z,3.00
2018-05-17T06:26:47.204Z,2.67
2018-05-17T06:29:14.720Z,2.70
2018-05-17T06:31:42.270Z,2.43
2018-05-17T06:34:09.744Z,2.67
2018-05-17T06:36:37.199Z,2.53
2018-05-17T06:39:05.444Z,2.60
2018-05-17T06:41:33.659Z,2.67
2018-05-17T06:44:01.143Z,2.43
2018-05-17T06:46:28.557Z,2.20
2018-05-17T06:48:55.993Z,2.73
2018-05-17T06:51:23.461Z,2.73
2018-05-17T06:53:51.675Z,2.47
2018-05-17T06:56:19.135Z,2.20
2018-05-17T06:58:46.582Z,2.23
2018-05-17T07:01:14.139Z,2.40
2018-05-17T07:03:41.514Z,1.90
2018-05-17T07:06:08.955Z,1.90
2018-05-17T07:08:36.398Z,1.80
2018-05-17T07:11:03.855Z,1.90
2018-05-17T07:13:31.294Z,1.50
2018-05-17T07:15:58.741Z,1.63
2018-05-17T07:18:27.111Z,2.00
2018-05-17T07:20:54.405Z,2.07
2018-05-17T07:23:21.856Z,2.00
2018-05-17T07:25:49.303Z,1.90
2018-05-17T07:28:16.757Z,2.50
2018-05-17T07:30:44.212Z,3.33
2018-05-17T07:33:11.671Z,2.63
2018-05-17T07:35:39.111Z,2.50
2018-05-17T07:38:07.328Z,2.10
2018-05-17T07:40:34.758Z,2.70
2018-05-17T07:43:02.218Z,2.50
2018-05-17T07:45:29.730Z,1.90
2018-05-17T07:47:57.166Z,1.63
2018-05-17T07:50:24.602Z,1.73
2018-05-17T07:52:52.038Z,1.80
2018-05-17T07:55:19.487Z,2.00
2018-05-17T07:57:47.802Z,1.70
2018-05-17T08:00:15.243Z,1.83
2018-05-17T08:02:42.711Z,2.37
2018-05-17T08:05:10.164Z,2.00
2018-05-17T08:07:37.596Z,2.33
2018-05-17T08:10:05.052Z,2.30
2018-05-17T08:12:32.503Z,1.43
2018-05-17T08:15:00.699Z,1.83
2018-05-17T08:17:28.157Z,1.90
2018-05-17T08:19:55.594Z,1.90
2018-05-17T08:22:23.052Z,1.87
2018-05-17T08:24:50.502Z,1.70
2018-05-17T08:27:18.724Z,1.63
2018-05-17T08:29:46.163Z,1.50
2018-05-17T08:32:13.620Z,2.00
2018-05-17T08:34:41.081Z,1.37
2018-05-17T08:37:08.532Z,1.57
2018-05-17T08:39:35.974Z,2.00
2018-05-17T08:42:03.428Z,1.60
2018-05-17T08:44:30.866Z,1.40
2018-05-17T08:46:59.084Z,1.10
2018-05-17T08:49:26.539Z,1.13
2018-05-17T08:51:53.999Z,1.47
2018-05-17T08:54:21.533Z,1.33
2018-05-17T08:56:48.901Z,1.33
2018-05-17T08:59:16.343Z,1.30
2018-05-17T09:01:43.809Z,1.53
2018-05-17T09:04:11.257Z,2.00
2018-05-17T09:06:38.716Z,2.00
2018-05-17T09:09:06.175Z,1.60
2018-05-17T09:11:33.634Z,1.90
2018-05-17T09:14:01.078Z,1.60
2018-05-17T09:16:28.510Z,1.67
2018-05-17T09:18:56.724Z,1.43
2018-05-17T09:21:24.174Z,1.50
2018-05-17T09:23:51.642Z,1.30
2018-05-17T09:26:19.085Z,1.80
2018-05-17T09:28:46.540Z,2.00
2018-05-17T09:31:13.983Z,1.90
2018-05-17T09:33:42.195Z,1.93
2018-05-17T09:36:09.650Z,2.60
2018-05-17T09:38:37.105Z,1.80
2018-05-17T09:41:04.554Z,2.00
2018-05-17T09:43:31.995Z,2.20
2018-05-17T09:45:59.436Z,2.70
2018-05-17T09:48:27.698Z,3.20
2018-05-17T09:50:55.138Z,2.80
2018-05-17T09:53:22.594Z,3.10
2018-05-17T09:55:50.038Z,3.50
2018-05-17T09:58:17.483Z,3.30
2018-05-17T10:00:47.773Z,3.70
2018-05-17T10:03:15.232Z,3.80
2018-05-17T10:05:42.686Z,4.50
2018-05-17T10:08:10.138Z,4.43
2018-05-17T10:10:38.350Z,4.30
2018-05-17T10:13:05.796Z,4.50
2018-05-17T10:15:33.266Z,4.00
2018-05-17T10:18:00.682Z,4.43
2018-05-17T10:20:28.917Z,3.90
2018-05-17T10:22:56.362Z,4.50
2018-05-17T10:25:23.809Z,3.50
2018-05-17T10:27:51.276Z,3.90
2018-05-17T10:30:18.808Z,3.53
2018-05-17T10:32:46.177Z,18.30
2018-05-17T10:35:13.611Z,5.60
2018-05-17T10:37:41.080Z,3.47
2018-05-17T10:40:09.292Z,3.60
2018-05-17T10:42:36.765Z,4.00
2018-05-17T10:45:04.209Z,3.57
2018-05-17T10:47:31.645Z,3.50
2018-05-17T10:49:59.104Z,3.20
2018-05-17T10:52:26.563Z,3.20
2018-05-17T10:54:54.010Z,3.50
2018-05-17T10:57:21.446Z,3.77
2018-05-17T10:59:48.905Z,3.43
2018-05-17T11:02:16.363Z,3.47
2018-05-17T11:04:43.822Z,3.37
2018-05-17T11:07:11.277Z,3.80
2018-05-17T11:09:38.727Z,3.57
2018-05-17T11:12:06.192Z,3.23
2018-05-17T11:14:33.631Z,2.97
2018-05-17T11:17:01.095Z,2.60
2018-05-17T11:19:28.533Z,2.80
2018-05-17T11:21:56.751Z,2.40
2018-05-17T11:24:24.217Z,2.00
2018-05-17T11:26:51.691Z,1.93
2018-05-17T11:29:19.143Z,2.30
2018-05-17T11:31:46.598Z,2.10
2018-05-17T11:34:14.056Z,2.10
2018-05-17T11:36:41.516Z,2.40
2018-05-17T11:39:08.974Z,1.73
2018-05-17T11:41:36.423Z,1.83
2018-05-17T11:44:03.896Z,1.73
2018-05-17T11:46:31.327Z,2.27
2018-05-17T11:48:58.774Z,2.03
2018-05-17T11:51:26.995Z,1.97
2018-05-17T11:53:55.216Z,2.20
2018-05-17T11:56:23.303Z,1.70
2018-05-17T11:58:50.750Z,2.50
2018-05-17T12:01:18.203Z,2.13
2018-05-17T12:03:45.654Z,2.30
2018-05-17T12:06:13.103Z,2.57
2018-05-17T12:08:40.553Z,2.37
2018-05-17T12:11:08.004Z,2.30
2018-05-17T12:13:35.442Z,2.80
2018-05-17T12:16:02.880Z,2.30
2018-05-17T12:18:30.325Z,2.87
2018-05-17T12:20:57.783Z,2.63
2018-05-17T12:23:25.244Z,2.30
2018-05-17T12:25:52.685Z,1.90
2018-05-17T12:28:20.145Z,1.80
2018-05-17T12:30:47.588Z,1.67
2018-05-17T12:33:15.049Z,1.80
2018-05-17T12:35:42.493Z,4.00
2018-05-17T12:38:09.929Z,1.93
2018-05-17T12:40:37.373Z,1.90
2018-05-17T12:43:04.835Z,2.73
2018-05-17T12:45:32.283Z,1.90
2018-05-17T12:48:00.496Z,2.00
2018-05-17T12:50:27.939Z,2.30
2018-05-17T12:52:55.397Z,1.97
2018-05-17T12:55:22.849Z,1.97
2018-05-17T12:57:50.289Z,2.00
2018-05-17T13:00:17.740Z,2.47
2018-05-17T13:02:45.186Z,2.90
2018-05-17T13:05:28.287Z,3.37
2018-05-17T13:07:55.745Z,2.20
2018-05-17T13:10:23.185Z,2.50
2018-05-17T13:12:50.648Z,3.40
2018-05-17T13:15:18.081Z,3.70
2018-05-17T13:17:45.548Z,3.20
2018-05-17T13:20:12.997Z,2.70
2018-05-17T13:22:40.466Z,2.50
2018-05-17T13:25:07.908Z,2.90
2018-05-17T13:27:35.372Z,2.27
2018-05-17T13:30:02.832Z,2.77
2018-05-17T13:32:30.271Z,2.50
2018-05-17T13:34:57.715Z,2.63
2018-05-17T13:37:25.164Z,2.70
2018-05-17T13:39:53.361Z,2.90
2018-05-17T13:42:20.824Z,2.77
2018-05-17T13:44:48.261Z,3.17
2018-05-17T13:47:15.707Z,2.63
2018-05-17T13:49:43.161Z,3.03
2018-05-17T13:52:10.608Z,2.77
2018-05-17T13:54:38.845Z,2.60
2018-05-17T13:57:06.303Z,2.73
2018-05-17T13:59:34.505Z,2.83
2018-05-17T14:02:02.709Z,3.00
2018-05-17T14:04:30.156Z,3.33
2018-05-17T14:06:57.622Z,4.00
2018-05-17T14:09:25.070Z,4.03
2018-05-17T14:11:52.509Z,4.80
2018-05-17T14:14:20.750Z,4.63
2018-05-17T14:16:48.263Z,4.27
2018-05-17T14:19:15.657Z,4.00
2018-05-17T14:21:43.099Z,4.97
2018-05-17T14:24:10.546Z,4.00
2018-05-17T14:26:38.003Z,4.10
2018-05-17T14:29:05.452Z,4.03
2018-05-17T14:31:32.887Z,4.10
2018-05-17T14:34:01.119Z,4.20
2018-05-17T14:36:28.600Z,4.43
2018-05-17T14:38:56.001Z,4.37
2018-05-17T14:41:23.468Z,5.30
2018-05-17T14:43:50.902Z,6.10
2018-05-17T14:46:18.361Z,6.97
2018-05-17T14:48:45.791Z,7.17
2018-05-17T14:51:14.014Z,8.00
2018-05-17T14:53:41.463Z,7.07
2018-05-17T14:56:09.208Z,6.50
2018-05-17T14:58:37.490Z,7.80
2018-05-17T15:01:04.936Z,7.00
2018-05-17T15:03:32.394Z,7.20
2018-05-17T15:05:59.846Z,7.00
2018-05-17T15:08:28.084Z,7.23
2018-05-17T15:10:55.499Z,7.60
2018-05-17T15:13:22.972Z,7.40
2018-05-17T15:15:50.417Z,7.00
2018-05-17T15:18:17.857Z,8.07
2018-05-17T15:20:45.300Z,6.93
2018-05-17T15:23:13.526Z,8.37
2018-05-17T15:25:40.985Z,8.23
2018-05-17T15:28:08.433Z,3.70
2018-05-17T15:30:35.874Z,3.07
2018-05-17T15:33:03.332Z,2.00
2018-05-17T15:35:30.776Z,2.23
2018-05-17T15:37:58.224Z,2.10
2018-05-17T15:40:25.671Z,3.00
2018-05-17T15:42:53.882Z,3.97
2018-05-17T15:45:21.341Z,3.13
2018-05-17T15:47:48.963Z,3.27
2018-05-17T15:50:17.188Z,2.50
2018-05-17T15:52:44.630Z,3.47
2018-05-17T15:55:12.083Z,2.50
2018-05-17T15:57:39.627Z,3.87
2018-05-17T16:00:07.078Z,2.83
2018-05-17T16:02:34.518Z,3.07
2018-05-17T16:05:02.722Z,3.43
2018-05-17T16:07:30.207Z,3.73
2018-05-17T16:09:57.641Z,3.77
2018-05-17T16:12:25.170Z,4.83
2018-05-17T16:14:52.665Z,4.23
2018-05-17T16:17:20.000Z,3.87
2018-05-17T16:19:47.436Z,3.57
2018-05-17T16:22:15.652Z,3.53
2018-05-17T16:24:43.099Z,3.90
2018-05-17T16:27:10.557Z,5.00
2018-05-17T16:29:38.009Z,4.80
2018-05-17T16:32:05.460Z,3.47
2018-05-17T16:34:32.923Z,4.00
2018-05-17T16:37:00.378Z,3.37
2018-05-17T16:39:28.597Z,3.10
2018-05-17T16:41:56.452Z,3.50
2018-05-17T16:44:23.885Z,3.57
2018-05-17T16:46:51.338Z,3.83
2018-05-17T16:49:18.804Z,4.97
2018-05-17T16:51:46.250Z,4.23
2018-05-17T16:54:13.880Z,3.60
2018-05-17T16:56:41.192Z,3.33
2018-05-17T16:59:08.634Z,3.30
2018-05-17T17:01:36.163Z,3.20
2018-05-17T17:04:03.623Z,3.00
2018-05-17T17:06:31.085Z,3.07
2018-05-17T17:08:58.525Z,3.20
2018-05-17T17:11:25.980Z,3.30
2018-05-17T17:13:53.431Z,3.40
2018-05-17T17:16:22.567Z,2.97
2018-05-17T17:18:50.025Z,3.70
2018-05-17T17:21:17.458Z,3.70
2018-05-17T17:23:44.993Z,3.30
2018-05-17T17:26:12.355Z,3.30
2018-05-17T17:28:40.564Z,3.77
2018-05-17T17:31:08.005Z,4.57
2018-05-17T17:33:35.443Z,4.73
2018-05-17T17:36:02.892Z,5.50
2018-05-17T17:38:31.097Z,5.20
2018-05-17T17:40:58.949Z,5.57
2018-05-17T17:43:26.399Z,5.03
2018-05-17T17:45:53.845Z,4.33
2018-05-17T17:48:22.050Z,3.90
2018-05-17T17:50:49.522Z,5.07
2018-05-17T17:53:16.973Z,5.97
2018-05-17T17:55:44.415Z,9.17
2018-05-17T17:58:11.858Z,7.17
2018-05-17T18:00:39.312Z,6.40
2018-05-17T18:03:06.746Z,6.10
2018-05-17T18:05:34.968Z,6.50
2018-05-17T18:08:02.410Z,8.93
2018-05-17T18:10:29.865Z,8.57
2018-05-17T18:12:57.312Z,7.33
2018-05-17T18:15:25.516Z,6.30
2018-05-17T18:17:52.966Z,6.63
2018-05-17T18:20:20.422Z,7.70
2018-05-17T18:22:47.866Z,7.13
2018-05-17T18:25:15.313Z,7.73
2018-05-17T18:27:42.764Z,8.83
2018-05-17T18:30:10.971Z,9.67
2018-05-17T18:32:38.444Z,8.10
2018-05-17T18:35:05.904Z,7.67
2018-05-17T18:37:33.342Z,7.60
2018-05-17T18:40:00.802Z,7.93
2018-05-17T18:42:28.280Z,7.30
2018-05-17T18:44:55.736Z,7.90
2018-05-17T18:47:23.207Z,8.43
2018-05-17T18:49:50.670Z,8.30
2018-05-17T18:52:18.445Z,7.60
2018-05-17T18:54:46.662Z,8.57
2018-05-17T18:57:14.119Z,7.80
2018-05-17T18:59:41.573Z,8.80
2018-05-17T19:02:09.034Z,8.60
2018-05-17T19:04:36.490Z,8.63
2018-05-17T19:07:03.940Z,8.87
2018-05-17T19:09:31.568Z,9.23
2018-05-17T19:11:59.027Z,8.53
2018-05-17T19:14:27.246Z,9.57
2018-05-17T19:16:54.708Z,9.63
2018-05-17T19:19:22.169Z,10.20
2018-05-17T19:21:49.628Z,9.53
2018-05-17T19:24:17.087Z,12.00
2018-05-17T19:26:44.546Z,12.90
2018-05-17T19:29:11.996Z,12.40
2018-05-17T19:31:39.540Z,13.03
2018-05-17T19:34:06.899Z,12.93
2018-05-17T19:36:34.352Z,13.83
2018-05-17T19:39:01.821Z,12.70
2018-05-17T19:41:29.270Z,13.93
2018-05-17T19:43:56.716Z,13.80
2018-05-17T19:46:24.190Z,14.30
2018-05-17T19:48:52.402Z,12.73
2018-05-17T19:51:19.868Z,12.50
2018-05-17T19:53:48.080Z,9.90
2018-05-17T19:56:15.530Z,10.00
2018-05-17T19:58:42.990Z,11.40
2018-05-17T20:01:10.442Z,10.97
2018-05-17T20:03:37.928Z,14.20
2018-05-17T20:06:05.393Z,14.77
2018-05-17T20:08:32.859Z,12.13
2018-05-17T20:11:00.309Z,12.47
2018-05-17T20:13:27.761Z,12.50
2018-05-17T20:15:55.224Z,12.90
2018-05-17T20:18:22.691Z,10.80
2018-05-17T20:20:50.143Z,10.83
2018-05-17T20:23:17.583Z,10.83
2018-05-17T20:25:45.045Z,11.37
2018-05-17T20:28:12.494Z,10.70
2018-05-17T20:30:39.941Z,11.70
2018-05-17T20:33:07.400Z,13.70
2018-05-17T20:35:34.864Z,17.07
2018-05-17T20:38:02.314Z,16.60
2018-05-17T20:40:29.775Z,13.30
2018-05-17T20:42:57.239Z,12.30
2018-05-17T20:45:25.461Z,14.70
2018-05-17T20:47:52.919Z,13.70
2018-05-17T20:50:20.370Z,13.73
2018-05-17T20:52:47.841Z,14.47
2018-05-17T20:55:16.100Z,16.00
2018-05-17T20:57:43.532Z,16.47
2018-05-17T21:00:10.977Z,17.43
2018-05-17T21:02:38.428Z,16.77
2018-05-17T21:05:05.875Z,18.73
2018-05-17T21:07:33.330Z,21.80
2018-05-17T21:10:00.800Z,21.10
2018-05-17T21:12:28.255Z,20.53
2018-05-17T21:14:55.777Z,21.17
2018-05-17T21:17:23.240Z,21.30
2018-05-17T21:19:50.706Z,22.73
2018-05-17T21:22:18.438Z,24.27
2018-05-17T21:24:45.888Z,24.97
2018-05-17T21:27:14.123Z,25.20
2018-05-17T21:29:41.571Z,23.07
2018-05-17T21:32:09.015Z,23.83
2018-05-17T21:34:36.568Z,27.57
2018-05-17T21:37:04.041Z,34.43
2018-05-17T21:39:31.572Z,37.47
2018-05-17T21:41:59.737Z,37.47
2018-05-17T21:44:27.198Z,38.07
2018-05-17T21:46:54.677Z,45.40
2018-05-17T21:49:22.895Z,44.50
2018-05-17T21:51:50.352Z,47.77
2018-05-17T21:54:17.798Z,46.33
2018-05-17T21:56:45.243Z,49.73
2018-05-17T21:59:12.708Z,52.87
2018-05-17T22:01:40.166Z,51.17
2018-05-17T22:04:07.623Z,49.27
2018-05-17T22:06:35.075Z,48.03
2018-05-17T22:09:02.522Z,49.10
2018-05-17T22:11:29.979Z,47.97
2018-05-17T22:13:57.445Z,50.90
2018-05-17T22:16:24.912Z,53.10
2018-05-17T22:18:52.372Z,54.03
2018-05-17T22:21:19.828Z,53.87
2018-05-17T22:23:47.297Z,52.77
2018-05-17T22:26:15.512Z,52.57
2018-05-17T22:28:42.966Z,53.20
2018-05-17T22:31:10.433Z,54.20
2018-05-17T22:33:37.876Z,54.60
2018-05-17T22:36:05.323Z,54.90
2018-05-17T22:38:32.766Z,53.90
2018-05-17T22:41:00.998Z,53.70
2018-05-17T22:43:28.468Z,52.03
2018-05-17T22:45:55.931Z,54.03
2018-05-17T22:48:23.396Z,55.27
2018-05-17T22:50:50.843Z,56.93
2018-05-17T22:53:18.302Z,55.40
2018-05-17T22:55:45.770Z,55.47
2018-05-17T22:58:24.902Z,58.53
2018-05-17T23:00:53.122Z,60.80
2018-05-17T23:03:20.585Z,58.80
2018-05-17T23:05:48.045Z,62.50
2018-05-17T23:08:15.552Z,58.60
2018-05-17T23:10:43.773Z,61.17
2018-05-17T23:13:11.852Z,62.27
2018-05-17T23:15:39.318Z,62.07
2018-05-17T23:18:06.775Z,58.97
2018-05-17T23:20:34.231Z,56.67
2018-05-17T23:23:01.693Z,59.93
2018-05-17T23:25:29.164Z,63.70
2018-05-17T23:27:56.632Z,60.60
2018-05-17T23:30:24.846Z,59.63
2018-05-17T23:32:52.332Z,64.00
2018-05-17T23:35:19.783Z,68.90
2018-05-17T23:37:47.233Z,62.33
2018-05-17T23:40:26.742Z,61.87
2018-05-17T23:42:54.226Z,61.17
2018-05-17T23:45:21.725Z,61.57
2018-05-17T23:47:49.191Z,62.37
2018-05-17T23:50:17.414Z,62.70
2018-05-17T23:52:44.866Z,60.33
2018-05-17T23:55:12.319Z,62.20
2018-05-17T23:57:39.780Z,64.00
